createdAt,value
2018-09-13T00:01:42.302Z,11.18
2018-09-13T00:04:11.141Z,12.77
2018-09-13T00:06:39.981Z,11.50
2018-09-13T00:09:08.860Z,11.48
2018-09-13T00:11:37.661Z,11.90
2018-09-13T00:14:06.507Z,11.55
2018-09-13T00:16:35.348Z,11.70
2018-09-13T00:19:04.196Z,13.40
2018-09-13T00:21:33.049Z,11.15
2018-09-13T00:24:01.880Z,12.68
2018-09-13T00:26:30.730Z,11.90
2018-09-13T00:28:59.589Z,12.90
2018-09-13T00:31:28.446Z,13.15
2018-09-13T00:33:58.027Z,13.23
2018-09-13T00:36:26.877Z,13.02
2018-09-13T00:38:55.719Z,15.50
2018-09-13T00:41:25.316Z,14.50
2018-09-13T00:43:54.171Z,16.05
2018-09-13T00:46:23.029Z,15.38
2018-09-13T00:48:51.872Z,13.45
2018-09-13T00:51:20.726Z,16.00
2018-09-13T00:53:49.583Z,12.45
2018-09-13T00:56:18.432Z,11.93
2018-09-13T00:58:47.274Z,14.45
2018-09-13T01:01:16.117Z,13.48
2018-09-13T01:03:44.960Z,14.07
2018-09-13T01:06:13.807Z,12.52
2018-09-13T01:08:42.671Z,13.18
2018-09-13T01:11:11.520Z,13.73
2018-09-13T01:13:40.418Z,13.02
2018-09-13T01:16:09.259Z,13.45
2018-09-13T01:18:38.116Z,12.10
2018-09-13T01:21:06.967Z,11.80
2018-09-13T01:23:36.561Z,12.65
2018-09-13T01:26:05.429Z,12.10
2018-09-13T01:28:34.260Z,13.60
2018-09-13T01:31:03.104Z,12.90
2018-09-13T01:33:31.953Z,12.60
2018-09-13T01:36:00.800Z,13.60
2018-09-13T01:38:29.659Z,12.35
2018-09-13T01:40:58.521Z,14.15
2018-09-13T01:43:27.377Z,12.27
2018-09-13T01:45:56.974Z,12.45
2018-09-13T01:48:25.846Z,13.95
2018-09-13T01:50:54.696Z,14.25
2018-09-13T01:53:23.541Z,12.80
2018-09-13T01:55:53.127Z,11.68
2018-09-13T01:58:21.995Z,12.60
2018-09-13T02:00:50.844Z,13.27
2018-09-13T02:03:19.701Z,13.00
2018-09-13T02:05:48.565Z,13.38
2018-09-13T02:08:17.403Z,13.70
2018-09-13T02:10:46.261Z,13.50
2018-09-13T02:13:15.111Z,14.13
2018-09-13T02:15:43.970Z,14.13
2018-09-13T02:18:12.814Z,12.95
2018-09-13T02:20:41.669Z,13.68
2018-09-13T02:23:10.519Z,15.02
2018-09-13T02:25:39.360Z,15.20
2018-09-13T02:28:08.213Z,15.50
2018-09-13T02:30:37.072Z,15.75
2018-09-13T02:33:05.934Z,17.52
2018-09-13T02:35:34.786Z,15.73
2018-09-13T02:38:03.629Z,15.25
2018-09-13T02:40:32.484Z,15.85
2018-09-13T02:43:02.072Z,16.15
2018-09-13T02:45:30.919Z,14.87
2018-09-13T02:48:12.180Z,14.23
2018-09-13T02:50:41.043Z,14.63
2018-09-13T02:53:10.628Z,14.20
2018-09-13T02:55:39.475Z,15.65
2018-09-13T02:58:08.315Z,12.93
2018-09-13T03:00:37.168Z,13.75
2018-09-13T03:03:06.038Z,14.40
2018-09-13T03:05:34.885Z,13.37
2018-09-13T03:08:03.741Z,14.52
2018-09-13T03:10:32.579Z,13.73
2018-09-13T03:13:02.167Z,14.03
2018-09-13T03:15:31.014Z,13.70
2018-09-13T03:17:59.885Z,12.90
2018-09-13T03:20:28.733Z,13.87
2018-09-13T03:22:57.582Z,13.13
2018-09-13T03:25:26.431Z,14.70
2018-09-13T03:27:55.290Z,14.53
2018-09-13T03:30:24.139Z,14.13
2018-09-13T03:32:52.985Z,12.13
2018-09-13T03:35:21.833Z,11.70
2018-09-13T03:37:50.673Z,11.50
2018-09-13T03:40:19.520Z,10.93
2018-09-13T03:42:48.364Z,12.10
2018-09-13T03:45:17.200Z,11.23
2018-09-13T03:47:46.038Z,12.23
2018-09-13T03:50:14.883Z,10.83
2018-09-13T03:52:43.737Z,12.65
2018-09-13T03:55:12.579Z,13.13
2018-09-13T03:57:41.432Z,11.53
2018-09-13T04:00:10.271Z,11.57
2018-09-13T04:02:39.121Z,11.37
2018-09-13T04:05:07.966Z,12.07
2018-09-13T04:07:37.560Z,11.67
2018-09-13T04:10:06.403Z,14.10
2018-09-13T04:12:35.246Z,12.20
2018-09-13T04:15:04.834Z,12.40
2018-09-13T04:17:33.686Z,12.03
2018-09-13T04:20:02.531Z,13.05
2018-09-13T04:22:32.128Z,12.43
2018-09-13T04:25:00.953Z,12.88
2018-09-13T04:27:29.802Z,11.73
2018-09-13T04:29:58.656Z,11.23
2018-09-13T04:32:27.514Z,12.67
2018-09-13T04:34:56.372Z,11.93
2018-09-13T04:37:25.970Z,11.50
2018-09-13T04:39:54.818Z,13.17
2018-09-13T04:42:23.674Z,12.00
2018-09-13T04:44:52.528Z,13.60
2018-09-13T04:47:21.363Z,12.43
2018-09-13T04:49:50.206Z,11.37
2018-09-13T04:52:19.046Z,11.80
2018-09-13T04:54:47.891Z,13.27
2018-09-13T04:57:16.743Z,11.37
2018-09-13T04:59:45.593Z,11.90
2018-09-13T05:02:14.437Z,10.87
2018-09-13T05:04:43.295Z,15.40
2018-09-13T05:07:12.136Z,12.63
2018-09-13T05:09:40.981Z,12.73
2018-09-13T05:12:09.836Z,11.93
2018-09-13T05:14:38.679Z,17.47
2018-09-13T05:17:07.533Z,11.77
2018-09-13T05:19:36.388Z,12.70
2018-09-13T05:22:05.268Z,11.60
2018-09-13T05:24:34.116Z,12.52
2018-09-13T05:27:02.957Z,11.33
2018-09-13T05:29:31.808Z,12.40
2018-09-13T05:32:00.670Z,10.30
2018-09-13T05:34:29.523Z,14.20
2018-09-13T05:36:58.390Z,12.88
2018-09-13T05:39:27.254Z,10.77
2018-09-13T05:41:56.093Z,11.60
2018-09-13T05:44:25.004Z,12.27
2018-09-13T05:46:53.787Z,11.20
2018-09-13T05:49:22.640Z,10.57
2018-09-13T05:51:52.239Z,10.73
2018-09-13T05:54:21.833Z,11.43
2018-09-13T05:56:50.688Z,12.23
2018-09-13T05:59:19.525Z,12.50
2018-09-13T06:01:48.388Z,8.30
2018-09-13T06:04:17.229Z,12.70
2018-09-13T06:06:46.077Z,13.57
2018-09-13T06:09:14.957Z,10.90
2018-09-13T06:11:43.802Z,12.37
2018-09-13T06:14:12.648Z,15.07
2018-09-13T06:16:41.493Z,10.20
2018-09-13T06:19:10.341Z,12.23
2018-09-13T06:21:39.929Z,10.73
2018-09-13T06:24:08.859Z,10.68
2018-09-13T06:26:37.708Z,10.37
2018-09-13T06:29:06.554Z,11.33
2018-09-13T06:31:35.388Z,12.67
2018-09-13T06:34:04.261Z,11.80
2018-09-13T06:36:33.212Z,12.15
2018-09-13T06:39:02.066Z,11.23
2018-09-13T06:41:30.914Z,10.37
2018-09-13T06:43:59.752Z,10.57
2018-09-13T06:46:29.345Z,10.67
2018-09-13T06:48:58.188Z,10.37
2018-09-13T06:51:27.032Z,10.20
2018-09-13T06:53:55.892Z,10.10
2018-09-13T06:56:24.751Z,11.70
2018-09-13T06:58:53.796Z,10.13
2018-09-13T07:01:22.650Z,11.73
2018-09-13T07:03:52.513Z,10.93
2018-09-13T07:06:22.022Z,11.93
2018-09-13T07:08:50.889Z,10.63
2018-09-13T07:11:19.773Z,12.73
2018-09-13T07:13:48.593Z,11.17
2018-09-13T07:16:18.197Z,11.20
2018-09-13T07:18:47.050Z,11.20
2018-09-13T07:21:15.898Z,12.87
2018-09-13T07:23:44.823Z,12.80
2018-09-13T07:26:14.370Z,13.60
2018-09-13T07:28:43.227Z,11.80
2018-09-13T07:31:12.233Z,15.13
2018-09-13T07:33:41.089Z,11.53
2018-09-13T07:36:09.925Z,13.50
2018-09-13T07:38:39.522Z,14.80
2018-09-13T07:41:08.374Z,12.47
2018-09-13T07:43:37.402Z,13.50
2018-09-13T07:46:06.304Z,14.23
2018-09-13T07:48:35.132Z,14.10
2018-09-13T07:51:03.972Z,11.77
2018-09-13T07:53:32.840Z,13.27
2018-09-13T07:56:01.681Z,14.73
2018-09-13T07:58:31.275Z,12.53
2018-09-13T08:01:00.117Z,12.50
2018-09-13T08:03:28.964Z,11.70
2018-09-13T08:05:58.583Z,12.63
2018-09-13T08:08:28.169Z,12.63
2018-09-13T08:10:57.151Z,11.80
2018-09-13T08:13:25.995Z,14.82
2018-09-13T08:15:54.904Z,13.32
2018-09-13T08:18:24.451Z,13.55
2018-09-13T08:20:54.061Z,10.98
2018-09-13T08:23:22.905Z,11.77
2018-09-13T08:25:51.750Z,11.45
2018-09-13T08:28:21.345Z,12.70
2018-09-13T08:30:50.185Z,12.93
2018-09-13T08:33:19.127Z,12.73
2018-09-13T08:35:47.899Z,11.80
2018-09-13T08:38:16.744Z,11.98
2018-09-13T08:40:45.606Z,12.50
2018-09-13T08:43:14.467Z,10.43
2018-09-13T08:45:43.299Z,12.37
2018-09-13T08:48:12.910Z,13.02
2018-09-13T08:50:41.772Z,14.43
2018-09-13T08:53:10.630Z,12.95
2018-09-13T08:55:39.473Z,11.63
2018-09-13T08:58:09.054Z,9.43
2018-09-13T09:00:37.955Z,11.68
2018-09-13T09:03:06.829Z,12.48
2018-09-13T09:05:35.631Z,11.35
2018-09-13T09:08:04.477Z,13.10
2018-09-13T09:10:33.320Z,10.85
2018-09-13T09:13:02.161Z,11.05
2018-09-13T09:15:31.006Z,12.05
2018-09-13T09:18:00.589Z,11.00
2018-09-13T09:20:30.041Z,12.30
2018-09-13T09:22:58.970Z,13.20
2018-09-13T09:25:27.843Z,10.45
2018-09-13T09:27:56.685Z,12.50
2018-09-13T09:30:26.274Z,15.82
2018-09-13T09:32:55.115Z,14.63
2018-09-13T09:35:23.972Z,11.18
2018-09-13T09:37:52.840Z,11.18
2018-09-13T09:40:21.756Z,11.20
2018-09-13T09:42:50.534Z,11.38
2018-09-13T09:45:19.380Z,11.63
2018-09-13T09:47:48.248Z,15.68
2018-09-13T09:50:17.148Z,15.38
2018-09-13T09:52:45.958Z,12.45
2018-09-13T09:55:14.801Z,12.18
2018-09-13T09:57:44.415Z,14.93
2018-09-13T10:00:13.254Z,10.82
2018-09-13T10:02:42.107Z,13.15
2018-09-13T10:05:10.957Z,13.10
2018-09-13T10:07:39.796Z,12.48
2018-09-13T10:10:08.658Z,12.88
2018-09-13T10:12:38.226Z,8.02
2018-09-13T10:15:07.109Z,10.52
2018-09-13T10:17:35.914Z,12.45
2018-09-13T10:20:05.345Z,11.80
2018-09-13T10:22:34.308Z,13.90
2018-09-13T10:25:06.065Z,13.02
2018-09-13T10:27:41.000Z,11.90
2018-09-13T10:30:11.589Z,14.63
2018-09-13T10:32:45.367Z,13.20
2018-09-13T10:35:17.184Z,12.27
2018-09-13T10:37:47.829Z,12.32
2018-09-13T10:40:17.444Z,12.73
2018-09-13T10:42:47.869Z,13.88
2018-09-13T10:45:22.590Z,11.75
2018-09-13T10:47:56.921Z,8.40
2018-09-13T10:50:20.278Z,13.27
2018-09-13T10:52:49.122Z,13.57
2018-09-13T10:55:17.992Z,9.27
2018-09-13T10:57:46.837Z,10.23
2018-09-13T11:00:15.676Z,9.45
2018-09-13T11:02:44.528Z,10.48
2018-09-13T11:05:13.371Z,11.23
2018-09-13T11:07:42.218Z,10.82
2018-09-13T11:10:11.085Z,11.38
2018-09-13T11:12:40.679Z,10.07
2018-09-13T11:15:09.514Z,10.75
2018-09-13T11:17:38.362Z,11.75
2018-09-13T11:20:07.211Z,9.68
2018-09-13T11:22:36.047Z,13.07
2018-09-13T11:25:04.884Z,9.77
2018-09-13T11:27:33.727Z,10.40
2018-09-13T11:30:03.320Z,9.82
2018-09-13T11:32:32.181Z,9.35
2018-09-13T11:35:01.195Z,9.38
2018-09-13T11:37:30.058Z,9.82
2018-09-13T11:39:58.986Z,12.13
2018-09-13T11:42:27.764Z,9.38
2018-09-13T11:44:56.602Z,10.30
2018-09-13T11:47:25.443Z,10.23
2018-09-13T11:49:54.325Z,10.25
2018-09-13T11:52:23.137Z,8.90
2018-09-13T11:54:52.717Z,10.90
2018-09-13T11:57:21.550Z,9.73
2018-09-13T11:59:50.396Z,11.38
2018-09-13T12:02:19.236Z,12.52
2018-09-13T12:04:48.078Z,10.50
2018-09-13T12:07:16.919Z,8.07
2018-09-13T12:09:45.766Z,9.80
2018-09-13T12:12:14.691Z,11.57
2018-09-13T12:14:43.583Z,12.15
2018-09-13T12:17:12.457Z,10.82
2018-09-13T12:19:41.276Z,11.30
2018-09-13T12:22:10.124Z,11.45
2018-09-13T12:24:38.969Z,10.80
2018-09-13T12:27:07.805Z,8.82
2018-09-13T12:29:36.749Z,12.65
2018-09-13T12:32:05.592Z,8.63
2018-09-13T12:34:35.202Z,11.25
2018-09-13T12:37:04.057Z,10.80
2018-09-13T12:39:32.913Z,10.50
2018-09-13T12:42:01.755Z,9.75
2018-09-13T12:44:31.190Z,12.98
2018-09-13T12:47:00.160Z,13.57
2018-09-13T12:49:29.031Z,12.45
2018-09-13T12:51:57.863Z,12.27
2018-09-13T12:54:26.775Z,12.20
2018-09-13T12:56:56.354Z,10.27
2018-09-13T12:59:25.216Z,10.02
2018-09-13T13:01:54.061Z,10.35
2018-09-13T13:04:22.912Z,11.12
2018-09-13T13:06:52.512Z,10.95
2018-09-13T13:09:21.514Z,10.85
2018-09-13T13:11:50.374Z,11.73
2018-09-13T13:14:19.218Z,10.75
2018-09-13T13:16:48.069Z,9.15
2018-09-13T13:19:16.921Z,11.63
2018-09-13T13:21:45.764Z,12.93
2018-09-13T13:24:15.367Z,9.55
2018-09-13T13:26:44.248Z,11.23
2018-09-13T13:29:13.093Z,10.93
2018-09-13T13:31:41.937Z,11.35
2018-09-13T13:34:10.801Z,12.37
2018-09-13T13:36:39.642Z,12.82
2018-09-13T13:39:08.498Z,9.35
2018-09-13T13:41:37.360Z,7.53
2018-09-13T13:44:06.255Z,10.10
2018-09-13T13:46:35.060Z,10.85
2018-09-13T13:49:03.901Z,10.95
2018-09-13T13:51:32.753Z,7.90
2018-09-13T13:54:01.594Z,9.60
2018-09-13T13:56:30.442Z,9.95
2018-09-13T13:58:59.295Z,8.52
2018-09-13T14:01:28.153Z,7.18
2018-09-13T14:03:57.004Z,8.52
2018-09-13T14:06:25.875Z,11.25
2018-09-13T14:08:54.708Z,8.38
2018-09-13T14:11:24.306Z,9.93
2018-09-13T14:13:53.893Z,9.02
2018-09-13T14:16:22.751Z,8.23
2018-09-13T14:18:51.586Z,8.88
2018-09-13T14:21:20.423Z,7.62
2018-09-13T14:23:49.282Z,9.32
2018-09-13T14:26:18.161Z,7.72
2018-09-13T14:28:47.031Z,8.13
2018-09-13T14:31:15.894Z,9.20
2018-09-13T14:33:44.727Z,7.05
2018-09-13T14:36:14.329Z,7.05
2018-09-13T14:38:43.931Z,7.80
2018-09-13T14:41:12.828Z,6.90
2018-09-13T14:43:41.610Z,7.93
2018-09-13T14:46:11.218Z,7.45
2018-09-13T14:48:40.063Z,5.85
2018-09-13T14:51:08.910Z,5.57
2018-09-13T14:53:37.788Z,7.60
2018-09-13T14:56:06.667Z,8.50
2018-09-13T14:58:35.445Z,6.60
2018-09-13T15:01:04.293Z,6.62
2018-09-13T15:03:33.138Z,8.65
2018-09-13T15:06:01.991Z,7.00
2018-09-13T15:08:30.837Z,8.23
2018-09-13T15:10:59.670Z,5.75
2018-09-13T15:13:28.520Z,6.47
2018-09-13T15:15:58.105Z,6.15
2018-09-13T15:18:27.697Z,6.90
2018-09-13T15:20:56.548Z,7.75
2018-09-13T15:23:25.391Z,8.60
2018-09-13T15:25:54.250Z,10.65
2018-09-13T15:28:23.094Z,5.93
2018-09-13T15:30:52.796Z,7.78
2018-09-13T15:33:21.624Z,5.93
2018-09-13T15:35:50.464Z,8.38
2018-09-13T15:38:20.048Z,10.20
2018-09-13T15:40:48.916Z,6.62
2018-09-13T15:43:17.760Z,6.25
2018-09-13T15:45:47.347Z,6.65
2018-09-13T15:48:16.229Z,7.18
2018-09-13T15:50:45.075Z,11.90
2018-09-13T15:53:13.930Z,7.28
2018-09-13T15:55:43.517Z,8.68
2018-09-13T15:58:12.370Z,10.48
2018-09-13T16:00:41.267Z,9.40
2018-09-13T16:03:10.104Z,8.15
2018-09-13T16:05:38.943Z,7.80
2018-09-13T16:08:07.785Z,9.87
2018-09-13T16:10:36.624Z,9.95
2018-09-13T16:13:05.689Z,7.55
2018-09-13T16:15:34.364Z,7.10
2018-09-13T16:18:03.186Z,6.60
2018-09-13T16:20:32.015Z,8.60
2018-09-13T16:23:01.588Z,7.57
2018-09-13T16:25:30.424Z,6.90
2018-09-13T16:28:00.044Z,7.57
2018-09-13T16:30:28.867Z,7.25
2018-09-13T16:32:57.694Z,8.40
2018-09-13T16:35:26.632Z,9.05
2018-09-13T16:37:55.425Z,9.98
2018-09-13T16:40:24.263Z,8.65
2018-09-13T16:42:57.990Z,9.25
2018-09-13T16:45:27.586Z,9.35
2018-09-13T16:47:56.457Z,10.40
2018-09-13T16:50:25.265Z,10.07
2018-09-13T16:52:54.113Z,12.77
2018-09-13T16:55:22.959Z,9.80
2018-09-13T16:57:51.796Z,9.32
2018-09-13T17:00:20.636Z,9.82
2018-09-13T17:02:49.464Z,12.73
2018-09-13T17:05:18.306Z,10.48
2018-09-13T17:07:47.935Z,9.93
2018-09-13T17:10:16.699Z,9.65
2018-09-13T17:12:45.531Z,10.23
2018-09-13T17:15:14.394Z,10.23
2018-09-13T17:17:43.244Z,8.88
2018-09-13T17:20:12.130Z,8.70
2018-09-13T17:22:40.943Z,8.45
2018-09-13T17:25:09.784Z,10.07
2018-09-13T17:27:38.625Z,11.27
2018-09-13T17:30:07.475Z,10.07
2018-09-13T17:32:36.320Z,10.43
2018-09-13T17:35:05.161Z,11.88
2018-09-13T17:37:33.996Z,8.98
2018-09-13T17:40:02.843Z,11.18
2018-09-13T17:42:31.688Z,10.85
2018-09-13T17:45:00.566Z,11.75
2018-09-13T17:47:29.399Z,11.85
2018-09-13T17:49:58.247Z,9.52
2018-09-13T17:52:27.101Z,10.80
2018-09-13T17:54:55.944Z,11.95
2018-09-13T17:57:24.785Z,10.43
2018-09-13T17:59:53.641Z,10.48
2018-09-13T18:02:22.488Z,10.73
2018-09-13T18:04:51.333Z,10.65
2018-09-13T18:07:20.176Z,11.00
2018-09-13T18:09:49.044Z,11.12
2018-09-13T18:12:17.917Z,11.27
2018-09-13T18:14:47.509Z,10.55
2018-09-13T18:17:16.425Z,12.80
2018-09-13T18:19:45.235Z,13.57
2018-09-13T18:22:14.094Z,12.68
2018-09-13T18:24:43.000Z,12.68
2018-09-13T18:27:11.823Z,12.60
2018-09-13T18:29:40.679Z,12.55
2018-09-13T18:32:09.537Z,11.63
2018-09-13T18:34:38.417Z,13.35
2018-09-13T18:37:07.297Z,15.77
2018-09-13T18:39:36.142Z,13.98
2018-09-13T18:42:04.996Z,13.43
2018-09-13T18:44:33.833Z,13.65
2018-09-13T18:47:02.679Z,12.63
2018-09-13T18:49:31.526Z,13.13
2018-09-13T18:52:01.108Z,13.13
2018-09-13T18:54:29.989Z,13.93
2018-09-13T18:56:58.799Z,14.30
2018-09-13T18:59:27.700Z,15.53
2018-09-13T19:01:56.497Z,17.47
2018-09-13T19:04:26.091Z,13.88
2018-09-13T19:06:55.716Z,16.17
2018-09-13T19:09:24.542Z,17.02
2018-09-13T19:11:53.430Z,18.83
2018-09-13T19:14:23.006Z,18.58
2018-09-13T19:16:52.817Z,18.87
2018-09-13T19:19:22.194Z,17.67
2018-09-13T19:21:51.048Z,18.40
2018-09-13T19:24:19.986Z,17.90
2018-09-13T19:26:48.826Z,20.40
2018-09-13T19:29:17.675Z,19.92
2018-09-13T19:31:46.517Z,16.40
2018-09-13T19:34:15.370Z,17.00
2018-09-13T19:36:44.942Z,17.70
2018-09-13T19:39:13.772Z,18.90
2018-09-13T19:41:42.626Z,19.12
2018-09-13T19:44:11.494Z,18.80
2018-09-13T19:46:40.318Z,20.05
2018-09-13T19:49:09.903Z,20.35
2018-09-13T19:51:38.833Z,20.10
2018-09-13T19:54:07.634Z,17.90
2018-09-13T19:56:37.213Z,20.30
2018-09-13T19:59:06.091Z,19.10
2018-09-13T20:01:34.937Z,20.63
2018-09-13T20:04:03.780Z,20.27
2018-09-13T20:06:32.626Z,23.27
2018-09-13T20:09:01.459Z,20.67
2018-09-13T20:11:30.357Z,22.37
2018-09-13T20:13:59.173Z,22.30
2018-09-13T20:16:28.014Z,23.77
2018-09-13T20:18:56.851Z,22.80
2018-09-13T20:21:25.689Z,23.70
2018-09-13T20:23:54.543Z,22.57
2018-09-13T20:26:23.384Z,23.93
2018-09-13T20:28:52.344Z,24.13
2018-09-13T20:31:21.099Z,25.40
2018-09-13T20:33:50.088Z,23.03
2018-09-13T20:36:18.957Z,22.90
2018-09-13T20:38:48.604Z,24.10
2018-09-13T20:41:17.390Z,25.48
2018-09-13T20:43:46.235Z,26.33
2018-09-13T20:46:15.085Z,23.40
2018-09-13T20:48:43.963Z,24.60
2018-09-13T20:51:12.788Z,22.27
2018-09-13T20:53:41.621Z,21.90
2018-09-13T20:56:10.459Z,21.13
2018-09-13T20:58:39.331Z,21.17
2018-09-13T21:01:08.132Z,22.03
2018-09-13T21:03:37.720Z,23.07
2018-09-13T21:06:06.569Z,21.20
2018-09-13T21:08:35.441Z,25.23
2018-09-13T21:11:04.242Z,23.63
2018-09-13T21:13:33.105Z,22.07
2018-09-13T21:16:01.963Z,23.90
2018-09-13T21:18:30.801Z,25.73
2018-09-13T21:20:59.656Z,23.70
2018-09-13T21:23:28.509Z,24.40
2018-09-13T21:25:57.351Z,25.37
2018-09-13T21:28:26.213Z,24.13
2018-09-13T21:30:55.069Z,27.95
2018-09-13T21:33:23.911Z,23.83
2018-09-13T21:35:52.768Z,24.20
2018-09-13T21:38:21.612Z,24.47
2018-09-13T21:40:50.464Z,24.30
2018-09-13T21:43:19.309Z,26.62
2018-09-13T21:45:48.157Z,24.50
2018-09-13T21:48:16.989Z,24.53
2018-09-13T21:50:45.842Z,24.93
2018-09-13T21:53:14.677Z,26.63
2018-09-13T21:55:43.511Z,24.80
2018-09-13T21:58:12.355Z,24.47
2018-09-13T22:00:41.200Z,27.13
2018-09-13T22:03:10.039Z,25.73
2018-09-13T22:05:38.915Z,24.63
2018-09-13T22:08:07.728Z,28.40
2018-09-13T22:10:36.596Z,24.67
2018-09-13T22:13:05.455Z,27.55
2018-09-13T22:15:35.033Z,24.23
2018-09-13T22:18:03.878Z,26.17
2018-09-13T22:20:32.732Z,25.40
2018-09-13T22:23:02.159Z,23.57
2018-09-13T22:25:31.738Z,24.40
2018-09-13T22:28:00.603Z,25.07
2018-09-13T22:30:29.450Z,25.85
2018-09-13T22:32:59.028Z,24.37
2018-09-13T22:35:28.626Z,23.07
2018-09-13T22:37:57.463Z,22.23
2018-09-13T22:40:26.304Z,22.07
2018-09-13T22:42:55.131Z,22.87
2018-09-13T22:45:23.972Z,22.57
2018-09-13T22:47:52.804Z,22.03
2018-09-13T22:50:22.377Z,19.57
2018-09-13T22:52:51.211Z,19.27
2018-09-13T22:55:20.055Z,19.83
2018-09-13T22:57:48.885Z,20.83
2018-09-13T23:00:18.475Z,19.03
2018-09-13T23:02:48.056Z,19.53
2018-09-13T23:05:16.920Z,18.53
2018-09-13T23:07:46.471Z,18.53
2018-09-13T23:10:15.415Z,18.30
2018-09-13T23:12:44.219Z,19.90
2018-09-13T23:15:13.053Z,17.67
2018-09-13T23:17:42.681Z,16.50
2018-09-13T23:20:11.469Z,15.20
2018-09-13T23:22:40.310Z,17.13
2018-09-13T23:25:09.140Z,17.03
2018-09-13T23:27:37.985Z,16.57
2018-09-13T23:30:06.819Z,17.90
2018-09-13T23:32:35.663Z,16.53
2018-09-13T23:35:04.516Z,16.87
2018-09-13T23:37:33.358Z,17.02
2018-09-13T23:40:02.261Z,15.53
2018-09-13T23:42:31.041Z,16.73
2018-09-13T23:44:59.879Z,14.87
2018-09-13T23:47:28.718Z,17.85
2018-09-13T23:49:57.562Z,15.17
2018-09-13T23:52:26.390Z,15.90
2018-09-13T23:54:55.228Z,17.50
2018-09-13T23:57:24.072Z,15.53
2018-09-13T23:59:52.908Z,15.07
